Time;durP1;ratioP1;P1;durP2;ratioP2;P2;SDS_P1;SDS_P2;PMS_P1;PMS_P2;Temp;Humidity;BMP_temperature;BMP_pressure;BME280_temperature;BME280_humidity;BME280_pressure;Samples;Min_cycle;Max_cycle;Signal;HPM_P1;HPM_P2
2023/12/26 00:02:47;;;;;;;3.90;3.70;;;8.60;84.90;;;;;;6285758;28;20626;-81
2023/12/26 00:05:50;;;;;;;3.50;3.27;;;8.60;85.00;;;;;;6281293;28;20234;-83
2023/12/26 00:08:54;;;;;;;3.10;3.00;;;8.60;85.20;;;;;;6275063;28;20249;-82
2023/12/26 00:11:57;;;;;;;4.10;3.43;;;8.60;85.30;;;;;;6275095;28;20257;-80
2023/12/26 00:15:02;;;;;;;3.30;3.10;;;8.50;85.60;;;;;;6282436;28;20637;-81
2023/12/26 00:18:06;;;;;;;3.37;3.17;;;8.50;85.70;;;;;;6283059;28;20233;-82
2023/12/26 00:21:09;;;;;;;3.60;3.40;;;8.50;85.60;;;;;;6279508;28;20608;-82
2023/12/26 00:24:12;;;;;;;3.57;3.20;;;8.60;85.60;;;;;;6279957;28;20637;-83
2023/12/26 00:27:16;;;;;;;3.50;3.20;;;8.60;85.60;;;;;;6274977;28;20379;-82
2023/12/26 00:30:22;;;;;;;3.30;3.20;;;8.60;85.60;;;;;;6279198;28;20293;-80
2023/12/26 00:33:25;;;;;;;3.03;2.93;;;8.60;85.60;;;;;;6265460;28;20242;-81
2023/12/26 00:36:29;;;;;;;4.10;3.60;;;8.60;85.50;;;;;;6279104;28;20230;-81
2023/12/26 00:39:32;;;;;;;3.33;3.23;;;8.60;85.70;;;;;;6282747;28;20237;-82
2023/12/26 00:42:38;;;;;;;3.37;3.17;;;8.60;85.60;;;;;;6274344;28;20240;-78
2023/12/26 00:45:43;;;;;;;3.40;3.20;;;8.60;85.60;;;;;;6270369;28;20848;-82
2023/12/26 00:48:47;;;;;;;3.40;3.30;;;8.60;85.70;;;;;;6272253;28;20232;-82
2023/12/26 00:51:52;;;;;;;3.43;3.13;;;8.60;85.80;;;;;;6281500;28;20316;-80
2023/12/26 00:54:55;;;;;;;3.40;3.10;;;8.60;85.90;;;;;;6286969;28;20245;-80
2023/12/26 00:57:59;;;;;;;3.23;3.13;;;8.60;86.10;;;;;;6281586;28;20229;-81
2023/12/26 01:01:04;;;;;;;3.60;3.40;;;8.60;86.50;;;;;;6286998;28;20261;-84
2023/12/26 01:04:07;;;;;;;3.30;3.10;;;8.60;86.40;;;;;;6290849;28;20967;-82
2023/12/26 01:07:11;;;;;;;5.03;3.33;;;8.60;86.70;;;;;;6282891;28;20236;-82
2023/12/26 01:10:15;;;;;;;3.10;3.00;;;8.60;86.70;;;;;;6269907;28;20890;-83
2023/12/26 01:13:19;;;;;;;3.13;3.07;;;8.60;86.60;;;;;;6273927;28;20245;-82
2023/12/26 01:16:27;;;;;;;3.50;3.30;;;8.60;86.70;;;;;;6285946;28;20766;-82
2023/12/26 01:19:31;;;;;;;2.90;2.87;;;8.60;87.00;;;;;;6289541;28;20697;-80
2023/12/26 01:22:34;;;;;;;3.30;3.20;;;8.60;87.00;;;;;;6275692;28;20747;-80
2023/12/26 01:25:37;;;;;;;3.50;3.30;;;8.60;87.10;;;;;;6262019;28;20232;-81
2023/12/26 01:28:41;;;;;;;3.03;2.90;;;8.60;87.20;;;;;;6282070;28;20234;-81
2023/12/26 01:31:45;;;;;;;3.27;3.23;;;8.60;87.30;;;;;;6269325;28;20241;-81
2023/12/26 01:34:49;;;;;;;2.77;2.60;;;8.60;87.20;;;;;;6286581;28;20775;-82
2023/12/26 01:37:52;;;;;;;3.57;3.27;;;8.60;87.20;;;;;;6274684;28;20866;-80
2023/12/26 01:40:55;;;;;;;3.13;3.10;;;8.60;87.10;;;;;;6282754;28;20237;-81
2023/12/26 01:43:59;;;;;;;3.10;3.00;;;8.60;87.30;;;;;;6286616;28;20355;-81
2023/12/26 01:47:04;;;;;;;3.53;3.30;;;8.60;87.40;;;;;;6279188;28;20249;-80
2023/12/26 01:50:10;;;;;;;2.90;2.90;;;8.60;87.50;;;;;;6279784;28;20749;-82
2023/12/26 01:53:14;;;;;;;3.37;3.27;;;8.60;87.60;;;;;;6283602;28;20775;-82
2023/12/26 01:56:18;;;;;;;2.70;2.70;;;8.70;87.40;;;;;;6278505;28;20237;-83
2023/12/26 01:59:23;;;;;;;2.80;2.70;;;8.70;87.30;;;;;;6287273;28;20604;-81
2023/12/26 02:02:29;;;;;;;2.80;2.70;;;8.70;87.50;;;;;;6278664;28;20240;-81
2023/12/26 02:05:33;;;;;;;2.73;2.73;;;8.70;87.60;;;;;;6288504;28;20237;-81
2023/12/26 02:08:37;;;;;;;2.67;2.67;;;8.70;87.70;;;;;;6286221;28;20229;-81
2023/12/26 02:11:41;;;;;;;2.70;2.67;;;8.80;87.90;;;;;;6290123;28;20230;-82
2023/12/26 02:14:44;;;;;;;2.60;2.40;;;8.80;87.80;;;;;;6269861;28;20340;-82
2023/12/26 02:17:51;;;;;;;2.63;2.63;;;8.90;87.80;;;;;;6270057;28;20818;-82
2023/12/26 02:20:54;;;;;;;2.67;2.57;;;8.90;87.70;;;;;;6284752;28;20233;-83
2023/12/26 02:23:59;;;;;;;2.60;2.60;;;9.00;87.50;;;;;;6278741;28;20720;-81
2023/12/26 02:27:03;;;;;;;2.70;2.70;;;9.00;87.50;;;;;;6287578;28;20234;-81
2023/12/26 02:30:09;;;;;;;2.40;2.40;;;8.90;87.70;;;;;;6279124;28;20225;-81
2023/12/26 02:33:13;;;;;;;2.57;2.57;;;8.80;87.90;;;;;;6281147;28;20229;-83
2023/12/26 02:36:16;;;;;;;2.47;2.47;;;8.80;88.00;;;;;;6278365;28;20304;-80
2023/12/26 02:39:21;;;;;;;2.60;2.60;;;8.80;88.00;;;;;;6282601;28;20245;-83
2023/12/26 02:42:29;;;;;;;2.30;2.30;;;8.90;88.20;;;;;;6285026;28;20244;-82
2023/12/26 02:45:33;;;;;;;2.33;2.33;;;8.90;88.00;;;;;;6286614;28;20838;-81
2023/12/26 02:48:37;;;;;;;2.50;2.40;;;8.90;88.10;;;;;;6270254;28;20308;-80
2023/12/26 02:51:40;;;;;;;2.20;2.20;;;8.90;88.20;;;;;;6285055;28;20233;-82
2023/12/26 02:54:45;;;;;;;2.47;2.47;;;8.90;88.20;;;;;;6271826;28;20233;-84
2023/12/26 02:57:48;;;;;;;2.30;2.30;;;8.90;88.20;;;;;;6277745;28;20233;-82
2023/12/26 03:00:52;;;;;;;2.30;2.30;;;8.90;88.00;;;;;;6275843;28;20801;-82
2023/12/26 03:03:55;;;;;;;2.30;2.20;;;8.90;88.00;;;;;;6274090;28;20241;-82
2023/12/26 03:06:59;;;;;;;2.03;2.03;;;8.90;88.20;;;;;;6298006;28;20243;-80
2023/12/26 03:10:08;;;;;;;2.33;2.13;;;8.90;88.30;;;;;;6281016;28;20622;-84
2023/12/26 03:13:12;;;;;;;1.90;1.90;;;8.90;88.40;;;;;;6274576;28;20340;-81
2023/12/26 03:16:15;;;;;;;2.20;2.20;;;9.00;88.20;;;;;;6281943;28;20243;-82
2023/12/26 03:19:18;;;;;;;1.90;1.90;;;9.10;88.10;;;;;;6281246;28;20241;-83
2023/12/26 03:22:22;;;;;;;2.00;2.00;;;9.20;87.80;;;;;;6272745;28;20311;-82
2023/12/26 03:25:27;;;;;;;1.90;1.90;;;9.10;87.50;;;;;;6280932;28;20276;-83
2023/12/26 03:28:31;;;;;;;1.90;1.90;;;9.20;87.20;;;;;;6286408;28;20233;-82
2023/12/26 03:31:39;;;;;;;1.80;1.80;;;9.20;86.90;;;;;;6253417;28;20229;-81
2023/12/26 03:34:42;;;;;;;2.00;2.00;;;9.20;86.60;;;;;;6276295;28;20238;-83
2023/12/26 03:37:47;;;;;;;1.87;1.87;;;9.10;86.50;;;;;;6269827;28;20226;-79
2023/12/26 03:40:51;;;;;;;1.80;1.80;;;9.10;86.40;;;;;;6288067;28;20243;-82
2023/12/26 03:43:55;;;;;;;1.80;1.80;;;9.10;86.40;;;;;;6279346;28;20241;-81
2023/12/26 03:46:59;;;;;;;1.97;1.97;;;9.10;86.30;;;;;;6284093;28;20779;-81
2023/12/26 03:50:06;;;;;;;1.90;1.90;;;9.00;86.40;;;;;;6285416;28;20731;-82
2023/12/26 03:53:10;;;;;;;2.20;2.20;;;9.00;86.40;;;;;;6283974;28;20241;-81
2023/12/26 03:56:15;;;;;;;1.90;1.90;;;9.00;86.20;;;;;;6278127;28;20233;-81
2023/12/26 03:59:18;;;;;;;1.80;1.80;;;9.10;86.10;;;;;;6277948;28;20244;-83
2023/12/26 04:02:22;;;;;;;2.00;2.00;;;9.00;86.10;;;;;;6285613;28;20275;-81
2023/12/26 04:05:25;;;;;;;1.90;1.90;;;9.00;86.20;;;;;;6270674;28;20621;-81
2023/12/26 04:08:28;;;;;;;2.00;2.00;;;9.00;85.90;;;;;;6277551;28;20240;-85
2023/12/26 04:11:33;;;;;;;2.00;2.00;;;9.00;86.00;;;;;;6285985;28;20717;-83
2023/12/26 04:14:36;;;;;;;2.07;2.07;;;9.00;85.90;;;;;;6286792;28;20298;-81
2023/12/26 04:17:40;;;;;;;2.00;2.00;;;9.00;85.80;;;;;;6280847;28;20230;-81
2023/12/26 04:20:43;;;;;;;2.10;2.10;;;9.00;85.80;;;;;;6284223;28;20248;-82
2023/12/26 04:23:47;;;;;;;2.00;2.00;;;9.00;85.80;;;;;;6284667;28;20230;-81
2023/12/26 04:26:51;;;;;;;2.00;2.00;;;9.00;85.90;;;;;;6280797;28;20229;-81
2023/12/26 04:29:55;;;;;;;2.30;2.30;;;9.00;85.90;;;;;;6285902;28;20764;-78
2023/12/26 04:32:59;;;;;;;2.10;2.10;;;9.00;86.10;;;;;;6276680;28;20315;-79
2023/12/26 04:36:03;;;;;;;1.90;1.90;;;9.00;86.40;;;;;;6278917;28;20233;-82
2023/12/26 04:39:08;;;;;;;2.00;2.00;;;9.00;86.40;;;;;;6283399;28;20234;-82
2023/12/26 04:42:13;;;;;;;2.00;2.00;;;9.00;86.00;;;;;;6280412;28;20229;-82
2023/12/26 04:45:17;;;;;;;1.97;1.97;;;9.00;85.90;;;;;;6287783;28;20590;-80
2023/12/26 04:48:21;;;;;;;2.00;2.00;;;9.00;85.90;;;;;;6283647;28;20275;-80
2023/12/26 04:51:28;;;;;;;2.20;2.20;;;9.00;86.00;;;;;;6281539;28;20238;-80
2023/12/26 04:54:31;;;;;;;1.97;1.97;;;9.00;86.10;;;;;;6287371;28;20233;-82
2023/12/26 04:57:36;;;;;;;1.90;1.90;;;9.10;85.80;;;;;;6288559;28;20806;-82
2023/12/26 05:00:40;;;;;;;2.13;2.10;;;9.20;85.70;;;;;;6285146;28;20241;-82
2023/12/26 05:03:44;;;;;;;2.00;2.00;;;9.00;86.00;;;;;;6279016;28;20245;-81
2023/12/26 05:06:48;;;;;;;1.87;1.87;;;9.00;86.00;;;;;;6284285;28;20379;-79
2023/12/26 05:09:52;;;;;;;2.10;2.10;;;9.10;86.10;;;;;;6280121;28;20229;-81
2023/12/26 05:12:57;;;;;;;2.00;2.00;;;9.00;86.00;;;;;;6276988;28;20260;-82
2023/12/26 05:16:03;;;;;;;2.00;2.00;;;9.00;86.10;;;;;;6276345;28;20240;-83
2023/12/26 05:19:07;;;;;;;2.03;2.03;;;9.00;86.10;;;;;;6281833;28;20236;-79
2023/12/26 05:22:10;;;;;;;2.10;2.10;;;9.00;86.00;;;;;;6282542;28;20881;-82
2023/12/26 05:25:13;;;;;;;2.03;2.03;;;9.00;86.10;;;;;;6281617;28;20408;-81
2023/12/26 05:28:18;;;;;;;2.20;2.20;;;9.00;86.10;;;;;;6274532;28;20237;-82
2023/12/26 05:31:22;;;;;;;2.00;2.00;;;8.90;86.50;;;;;;6271959;28;20748;-81
2023/12/26 05:34:25;;;;;;;1.87;1.87;;;9.00;86.40;;;;;;6278100;28;20241;-83
2023/12/26 05:37:29;;;;;;;2.30;2.30;;;9.00;86.30;;;;;;6273315;28;20241;-80
2023/12/26 05:40:32;;;;;;;2.20;2.20;;;8.90;86.50;;;;;;6278427;28;20230;-80
2023/12/26 05:43:37;;;;;;;2.10;2.10;;;9.00;86.50;;;;;;6261593;28;20237;-83
2023/12/26 05:46:42;;;;;;;2.00;2.00;;;9.00;86.40;;;;;;6271994;28;21165;-83
2023/12/26 05:49:46;;;;;;;1.90;1.90;;;9.00;86.60;;;;;;6281578;28;20250;-79
2023/12/26 05:52:52;;;;;;;2.17;2.17;;;8.90;86.70;;;;;;6279030;28;20249;-81
2023/12/26 05:55:56;;;;;;;2.13;2.13;;;8.90;86.80;;;;;;6273475;28;20226;-80
2023/12/26 05:59:02;;;;;;;2.03;2.03;;;8.90;86.80;;;;;;6280980;28;20312;-84
2023/12/26 06:02:05;;;;;;;2.37;2.37;;;8.90;86.90;;;;;;6268692;28;20258;-80
2023/12/26 06:05:09;;;;;;;2.00;2.00;;;8.90;87.20;;;;;;6277257;28;20234;-78
2023/12/26 06:08:12;;;;;;;2.00;2.00;;;8.90;87.20;;;;;;6282609;28;20259;-81
2023/12/26 06:11:15;;;;;;;1.90;1.90;;;8.90;87.20;;;;;;6285923;28;20245;-82
2023/12/26 06:14:22;;;;;;;2.03;2.03;;;8.90;87.10;;;;;;6284529;28;20268;-82
2023/12/26 06:17:26;;;;;;;2.00;2.00;;;8.90;87.10;;;;;;6283204;28;20253;-81
2023/12/26 06:20:29;;;;;;;2.03;2.03;;;9.00;87.20;;;;;;6284014;28;20241;-83
2023/12/26 06:23:33;;;;;;;1.97;1.97;;;9.00;87.00;;;;;;6276599;28;20233;-82
2023/12/26 06:26:36;;;;;;;2.50;2.40;;;8.90;87.00;;;;;;6271952;28;20714;-83
2023/12/26 06:29:41;;;;;;;2.00;2.00;;;8.90;87.10;;;;;;6266771;28;20275;-80
2023/12/26 06:32:45;;;;;;;1.90;1.90;;;8.90;87.30;;;;;;6280732;28;20244;-80
2023/12/26 06:35:49;;;;;;;2.00;2.00;;;9.00;87.30;;;;;;6264459;28;20240;-79
2023/12/26 06:38:54;;;;;;;1.90;1.90;;;9.00;87.00;;;;;;6265775;28;20731;-81
2023/12/26 06:41:57;;;;;;;2.20;2.20;;;9.00;86.70;;;;;;6282650;28;20260;-81
2023/12/26 06:45:02;;;;;;;1.90;1.90;;;9.00;86.40;;;;;;6271683;28;20234;-80
2023/12/26 06:48:06;;;;;;;1.80;1.80;;;9.00;86.20;;;;;;6264615;28;20718;-79
2023/12/26 06:51:09;;;;;;;1.90;1.90;;;9.00;86.20;;;;;;6270589;28;20244;-80
2023/12/26 06:54:13;;;;;;;2.00;2.00;;;9.00;86.00;;;;;;6281304;28;20316;-79
2023/12/26 06:57:16;;;;;;;2.00;2.00;;;9.00;85.30;;;;;;6283345;28;20233;-79
2023/12/26 07:00:22;;;;;;;1.87;1.87;;;9.00;85.20;;;;;;6283549;28;20253;-78
2023/12/26 07:03:26;;;;;;;2.00;2.00;;;9.00;85.00;;;;;;6280383;28;20827;-80
2023/12/26 07:06:29;;;;;;;2.00;2.00;;;9.00;84.50;;;;;;6282863;28;20237;-78
2023/12/26 07:09:32;;;;;;;2.10;2.10;;;9.00;84.00;;;;;;6281920;28;20695;-80
2023/12/26 07:12:37;;;;;;;2.03;2.00;;;9.00;83.90;;;;;;6279596;28;20225;-79
2023/12/26 07:15:42;;;;;;;1.90;1.90;;;9.00;83.60;;;;;;6272539;28;20283;-80
2023/12/26 07:18:47;;;;;;;2.00;2.00;;;9.00;83.20;;;;;;6282860;28;20237;-78
2023/12/26 07:21:50;;;;;;;2.10;2.10;;;9.00;82.70;;;;;;6277330;28;20233;-78
2023/12/26 07:24:54;;;;;;;1.97;1.90;;;9.00;82.50;;;;;;6272822;28;20326;-79
2023/12/26 07:27:57;;;;;;;2.00;1.90;;;8.90;82.10;;;;;;6266971;28;20740;-79
2023/12/26 07:31:02;;;;;;;2.17;2.07;;;8.90;81.90;;;;;;6270634;28;20310;-79
2023/12/26 07:34:08;;;;;;;2.03;2.03;;;8.90;82.00;;;;;;6275597;28;20230;-79
2023/12/26 07:37:11;;;;;;;2.30;2.20;;;8.90;81.70;;;;;;6273503;28;20248;-79
2023/12/26 07:40:15;;;;;;;2.10;2.10;;;8.80;81.60;;;;;;6279701;28;20633;-81
2023/12/26 07:43:18;;;;;;;2.13;2.13;;;8.90;81.40;;;;;;6276576;28;20241;-80
2023/12/26 07:46:24;;;;;;;2.10;2.10;;;8.90;81.10;;;;;;6291372;28;20325;-79
2023/12/26 07:49:27;;;;;;;2.00;2.00;;;8.90;81.20;;;;;;6288868;28;20289;-81
2023/12/26 07:52:30;;;;;;;2.10;2.10;;;8.80;81.40;;;;;;6275311;28;20238;-79
2023/12/26 07:55:34;;;;;;;1.90;1.90;;;8.90;81.30;;;;;;6280804;28;20237;-81
2023/12/26 07:58:38;;;;;;;2.10;2.10;;;8.80;81.40;;;;;;6285613;28;20230;-80
2023/12/26 08:01:42;;;;;;;2.30;2.23;;;8.90;81.10;;;;;;6289605;28;20229;-79
2023/12/26 08:04:46;;;;;;;2.37;2.37;;;8.90;81.00;;;;;;6281791;28;20221;-80
2023/12/26 08:07:49;;;;;;;2.10;2.10;;;8.90;81.10;;;;;;6278317;28;20226;-80
2023/12/26 08:10:52;;;;;;;2.10;2.10;;;8.90;81.20;;;;;;6281592;28;20232;-81
2023/12/26 08:13:55;;;;;;;2.50;2.40;;;8.90;81.00;;;;;;6284094;28;20225;-79
2023/12/26 08:17:01;;;;;;;2.37;2.37;;;8.90;81.00;;;;;;6279200;28;20240;-79
2023/12/26 08:20:05;;;;;;;2.10;2.10;;;8.90;80.70;;;;;;6283954;28;20240;-79
2023/12/26 08:23:08;;;;;;;2.20;2.20;;;9.00;80.10;;;;;;6286896;28;20247;-78
2023/12/26 08:26:11;;;;;;;2.40;2.30;;;9.00;79.70;;;;;;6285238;28;20234;-79
2023/12/26 08:29:15;;;;;;;2.40;2.40;;;9.00;79.40;;;;;;6283829;28;20241;-79
2023/12/26 08:32:19;;;;;;;2.53;2.43;;;9.00;79.20;;;;;;6277582;28;20629;-76
2023/12/26 08:35:23;;;;;;;2.33;2.33;;;9.00;78.90;;;;;;6283161;28;20402;-80
2023/12/26 08:38:26;;;;;;;2.60;2.40;;;9.00;78.40;;;;;;6280156;28;20237;-78
2023/12/26 08:41:30;;;;;;;2.53;2.53;;;9.10;78.00;;;;;;6283421;28;20265;-82
2023/12/26 08:44:33;;;;;;;2.33;2.20;;;9.00;78.20;;;;;;6276605;28;20242;-80
2023/12/26 08:47:38;;;;;;;2.73;2.60;;;9.10;78.30;;;;;;6285373;28;20240;-79
2023/12/26 08:50:41;;;;;;;2.60;2.50;;;9.00;78.20;;;;;;6284357;28;20230;-78
2023/12/26 08:53:44;;;;;;;2.57;2.57;;;9.20;77.70;;;;;;6278670;28;20233;-80
2023/12/26 08:56:51;;;;;;;2.70;2.50;;;9.20;77.70;;;;;;6276635;28;20428;-80
2023/12/26 08:59:55;;;;;;;2.60;2.40;;;9.20;77.50;;;;;;6277689;28;20232;-80
2023/12/26 09:03:01;;;;;;;2.63;2.57;;;9.20;77.20;;;;;;6282925;28;20520;-79
2023/12/26 09:06:11;;;;;;;2.50;2.50;;;9.10;77.50;;;;;;6282551;28;20313;-80
2023/12/26 09:09:17;;;;;;;2.80;2.60;;;9.20;77.30;;;;;;6277083;28;20658;-80
2023/12/26 09:12:20;;;;;;;3.23;2.93;;;9.10;77.30;;;;;;6278909;28;20594;-79
2023/12/26 09:15:23;;;;;;;2.60;2.60;;;9.20;77.20;;;;;;6277623;28;20263;-80
2023/12/26 09:18:30;;;;;;;2.53;2.50;;;9.20;76.70;;;;;;6278449;28;20879;-80
2023/12/26 09:21:34;;;;;;;2.50;2.40;;;9.10;76.90;;;;;;6275505;28;20233;-80
2023/12/26 09:24:37;;;;;;;6.20;2.90;;;9.00;76.80;;;;;;6286749;28;20902;-80
2023/12/26 09:27:43;;;;;;;3.00;2.90;;;9.00;76.50;;;;;;6275401;28;20832;-78
2023/12/26 09:30:47;;;;;;;3.20;3.00;;;9.00;76.40;;;;;;6269398;28;20237;-78
2023/12/26 09:33:51;;;;;;;3.10;2.90;;;9.00;76.30;;;;;;6278670;28;20310;-78
2023/12/26 09:36:55;;;;;;;5.67;3.10;;;9.00;75.70;;;;;;6278150;28;20918;-78
2023/12/26 09:39:58;;;;;;;2.70;2.60;;;9.00;75.70;;;;;;6278311;28;20681;-80
2023/12/26 09:43:04;;;;;;;4.97;3.47;;;9.10;75.40;;;;;;6278678;28;20751;-80
2023/12/26 09:46:07;;;;;;;2.77;2.60;;;9.20;75.10;;;;;;6282789;28;20231;-79
2023/12/26 09:49:12;;;;;;;2.90;2.70;;;9.20;74.60;;;;;;6277992;28;20587;-80
2023/12/26 09:52:19;;;;;;;3.27;3.07;;;9.20;74.40;;;;;;6279582;28;20312;-79
2023/12/26 09:55:22;;;;;;;3.13;2.93;;;9.20;74.50;;;;;;6277999;28;20594;-75
2023/12/26 09:58:27;;;;;;;3.40;3.13;;;9.20;74.50;;;;;;6280843;28;20240;-80
2023/12/26 10:01:30;;;;;;;4.47;2.87;;;9.20;74.40;;;;;;6281466;28;20775;-78
2023/12/26 10:04:35;;;;;;;3.10;2.90;;;9.20;74.50;;;;;;6276576;28;20242;-79
2023/12/26 10:07:38;;;;;;;3.30;3.07;;;9.30;73.70;;;;;;6279372;28;20906;-78
2023/12/26 10:10:42;;;;;;;5.60;2.80;;;9.40;73.10;;;;;;6270768;28;20811;-80
2023/12/26 10:13:50;;;;;;;2.90;2.70;;;9.50;72.50;;;;;;6282987;28;20237;-79
2023/12/26 10:16:55;;;;;;;2.83;2.63;;;9.60;72.10;;;;;;6281340;28;20822;-78
2023/12/26 10:20:03;;;;;;;3.00;2.73;;;9.60;71.80;;;;;;6276700;28;20222;-79
2023/12/26 10:23:06;;;;;;;3.20;2.90;;;9.70;70.90;;;;;;6283430;28;20225;-77
2023/12/26 10:26:09;;;;;;;6.03;3.23;;;9.60;70.40;;;;;;6274621;28;20305;-79
2023/12/26 10:29:13;;;;;;;3.43;2.97;;;9.70;70.40;;;;;;6281856;28;20226;-79
2023/12/26 10:32:16;;;;;;;3.00;2.80;;;9.80;70.50;;;;;;6284457;28;20230;-79
2023/12/26 10:35:23;;;;;;;3.13;2.90;;;10.00;69.20;;;;;;6276952;28;20236;-78
2023/12/26 10:38:27;;;;;;;3.33;2.90;;;10.00;68.90;;;;;;6280452;28;20738;-78
2023/12/26 10:41:31;;;;;;;3.70;2.90;;;9.80;68.50;;;;;;6278872;28;20260;-79
2023/12/26 10:44:58;;;;;;;3.53;3.20;;;9.60;69.20;;;;;;6273049;28;20891;-77
2023/12/26 10:48:05;;;;;;;3.17;2.87;;;9.60;68.90;;;;;;6282448;28;20234;-79
2023/12/26 10:51:11;;;;;;;5.87;2.87;;;9.60;69.30;;;;;;6282740;28;20431;-78
2023/12/26 10:54:20;;;;;;;3.33;3.00;;;9.60;68.20;;;;;;6280976;28;20319;-79
2023/12/26 10:57:25;;;;;;;3.67;3.30;;;9.60;68.50;;;;;;6278810;28;20909;-78
2023/12/26 13:51:28;;;;;;;5.13;3.63;;;9.20;61.90;;;;;;6280665;28;20324;-78
2023/12/26 13:54:31;;;;;;;4.13;3.20;;;9.20;61.40;;;;;;6274787;28;20237;-79
2023/12/26 13:57:33;;;;;;;3.80;3.00;;;9.20;61.50;;;;;;6276383;28;20794;-79
2023/12/26 14:00:36;;;;;;;4.07;3.70;;;9.20;60.90;;;;;;6285043;28;20842;-77
2023/12/26 14:03:39;;;;;;;5.43;3.03;;;9.20;61.20;;;;;;6271525;28;20340;-78
2023/12/26 14:06:46;;;;;;;3.63;3.30;;;9.20;61.20;;;;;;6278554;28;20237;-78
2023/12/26 14:09:49;;;;;;;3.87;3.43;;;9.20;61.10;;;;;;6284642;28;20229;-79
2023/12/26 14:12:52;;;;;;;3.17;2.87;;;9.20;61.10;;;;;;6279361;28;20221;-81
2023/12/26 14:15:55;;;;;;;4.63;3.33;;;9.20;61.50;;;;;;6283598;28;20416;-78
2023/12/26 14:18:57;;;;;;;3.87;2.77;;;9.10;61.60;;;;;;6286833;28;20237;-77
2023/12/26 14:22:02;;;;;;;5.27;3.27;;;9.20;61.30;;;;;;6274281;28;20310;-78
2023/12/26 14:25:05;;;;;;;5.07;2.97;;;9.20;60.90;;;;;;6278845;28;25388;-80
2023/12/26 14:28:08;;;;;;;5.43;3.50;;;9.20;61.30;;;;;;6285517;28;20704;-79
2023/12/26 14:31:10;;;;;;;4.57;3.20;;;9.10;61.30;;;;;;6287236;28;20276;-80
2023/12/26 14:34:15;;;;;;;3.40;3.20;;;9.00;61.30;;;;;;6282782;28;20244;-77
2023/12/26 14:37:19;;;;;;;3.43;3.23;;;9.00;61.30;;;;;;6284007;28;20230;-80
2023/12/26 14:40:22;;;;;;;7.90;3.50;;;9.00;61.40;;;;;;6277040;28;20241;-78
2023/12/26 14:43:25;;;;;;;3.80;3.50;;;9.00;61.20;;;;;;6286221;28;20249;-80
2023/12/26 14:46:27;;;;;;;8.53;3.43;;;9.00;61.30;;;;;;6279137;28;20748;-79
2023/12/26 14:49:30;;;;;;;3.40;3.00;;;9.00;61.60;;;;;;6287978;28;20248;-79
2023/12/26 14:52:35;;;;;;;5.73;3.10;;;9.00;61.70;;;;;;6282913;28;20240;-80
2023/12/26 14:55:37;;;;;;;6.13;3.43;;;8.90;61.70;;;;;;6284500;28;20779;-77
2023/12/26 14:58:40;;;;;;;3.50;3.20;;;9.00;62.00;;;;;;6279709;28;20245;-77
2023/12/26 15:01:43;;;;;;;4.03;3.40;;;9.00;62.20;;;;;;6279936;28;20609;-78
2023/12/26 15:04:46;;;;;;;3.73;3.40;;;8.90;61.90;;;;;;6274025;28;20241;-79
2023/12/26 15:07:51;;;;;;;3.87;3.53;;;8.90;62.70;;;;;;6282011;28;20350;-79
2023/12/26 15:10:55;;;;;;;6.63;3.63;;;8.80;63.40;;;;;;6285127;28;20244;-80
2023/12/26 15:13:58;;;;;;;4.77;3.67;;;8.70;64.20;;;;;;6282666;28;20605;-79
2023/12/26 15:17:21;;;;;;;4.27;3.63;;;8.60;64.20;;;;;;6281144;28;20731;-78
2023/12/26 15:20:24;;;;;;;6.77;3.90;;;8.60;63.90;;;;;;6262733;28;20237;-79
2023/12/26 15:23:29;;;;;;;3.43;3.30;;;8.60;64.00;;;;;;6276237;28;20234;-78
2023/12/26 15:26:32;;;;;;;4.03;3.57;;;8.50;64.00;;;;;;6282758;28;20241;-76
2023/12/26 15:29:39;;;;;;;3.13;3.03;;;8.50;64.30;;;;;;6273058;28;20752;-79
2023/12/26 15:32:42;;;;;;;5.73;3.20;;;8.40;64.20;;;;;;6283398;28;20240;-79
2023/12/26 15:35:46;;;;;;;3.13;2.93;;;8.40;64.10;;;;;;6284500;28;20251;-76
2023/12/26 15:38:51;;;;;;;3.57;3.37;;;8.40;64.00;;;;;;6277610;28;20225;-77
2023/12/26 15:41:54;;;;;;;3.70;3.20;;;8.40;64.00;;;;;;6285623;28;20228;-79
2023/12/26 15:44:58;;;;;;;6.27;3.63;;;8.40;64.00;;;;;;6283925;28;20731;-77
2023/12/26 15:48:01;;;;;;;6.27;3.93;;;8.30;64.20;;;;;;6270325;28;20324;-79
2023/12/26 15:51:06;;;;;;;6.30;4.20;;;8.30;64.30;;;;;;6269247;28;20244;-76
2023/12/26 15:54:11;;;;;;;6.13;3.83;;;8.20;64.40;;;;;;6274930;28;20244;-77
2023/12/26 15:57:14;;;;;;;7.67;3.97;;;8.20;64.40;;;;;;6282152;28;20237;-78
2023/12/26 16:00:19;;;;;;;6.83;3.93;;;8.20;64.20;;;;;;6281513;28;20264;-79
2023/12/26 16:03:22;;;;;;;3.90;3.60;;;8.20;64.20;;;;;;6284109;28;20237;-80
2023/12/26 16:06:27;;;;;;;6.87;4.23;;;8.20;64.20;;;;;;6281108;28;20291;-77
2023/12/26 16:09:32;;;;;;;8.40;3.87;;;8.20;64.20;;;;;;6280964;28;20229;-79
2023/12/26 16:12:38;;;;;;;5.70;3.63;;;8.10;64.40;;;;;;6285285;28;20454;-78
2023/12/26 16:15:41;;;;;;;4.80;3.30;;;8.10;64.40;;;;;;6281061;28;20253;-77
2023/12/26 16:18:44;;;;;;;7.43;3.57;;;8.10;65.00;;;;;;6280747;28;20862;-79
2023/12/26 16:21:48;;;;;;;6.37;3.43;;;8.10;64.70;;;;;;6273946;28;20313;-79
2023/12/26 16:24:53;;;;;;;5.67;3.73;;;8.10;65.00;;;;;;6288262;28;20723;-80
2023/12/26 16:27:56;;;;;;;4.00;3.70;;;8.20;64.70;;;;;;6288940;28;20252;-79
2023/12/26 16:31:01;;;;;;;7.03;3.93;;;8.20;64.70;;;;;;6277308;28;20244;-78
2023/12/26 16:34:04;;;;;;;7.57;4.30;;;8.30;64.70;;;;;;6281176;28;20233;-79
2023/12/26 16:37:08;;;;;;;6.33;3.30;;;8.30;64.50;;;;;;6282967;28;20229;-77
2023/12/26 16:40:14;;;;;;;4.00;3.70;;;8.40;64.70;;;;;;6271529;28;20237;-79
2023/12/26 16:43:18;;;;;;;5.83;3.60;;;8.40;64.70;;;;;;6289486;28;20603;-80
2023/12/26 16:46:22;;;;;;;4.17;3.73;;;8.40;64.10;;;;;;6288093;28;20252;-80
2023/12/26 16:49:26;;;;;;;7.30;4.43;;;8.40;64.10;;;;;;6285215;28;20241;-78
2023/12/26 16:52:29;;;;;;;3.53;3.23;;;8.40;63.90;;;;;;6281541;28;20225;-79
2023/12/26 16:55:34;;;;;;;5.30;3.83;;;8.40;63.90;;;;;;6280489;28;20272;-81
2023/12/26 16:58:38;;;;;;;4.27;3.87;;;8.40;64.10;;;;;;6284490;28;20245;-81
2023/12/26 17:01:43;;;;;;;6.90;4.00;;;8.50;63.80;;;;;;6284027;28;20248;-81
2023/12/26 17:04:46;;;;;;;3.83;3.30;;;8.50;63.80;;;;;;6286985;28;20399;-80
2023/12/26 17:07:50;;;;;;;8.87;3.97;;;8.50;63.50;;;;;;6290491;28;20237;-81
2023/12/26 17:10:56;;;;;;;4.40;3.50;;;8.50;63.50;;;;;;6273179;28;20237;-82
2023/12/26 17:14:03;;;;;;;4.53;3.40;;;8.50;63.50;;;;;;6274954;28;20325;-79
2023/12/26 17:17:07;;;;;;;5.00;3.67;;;8.50;63.60;;;;;;6292256;28;20285;-80
2023/12/26 17:20:11;;;;;;;7.27;3.83;;;8.50;63.50;;;;;;6277659;28;20233;-81
2023/12/26 17:23:14;;;;;;;5.87;3.67;;;8.60;63.40;;;;;;6284170;28;20234;-82
2023/12/26 17:26:24;;;;;;;3.80;3.50;;;8.50;63.70;;;;;;6271581;28;20237;-79
2023/12/26 17:29:28;;;;;;;4.23;3.60;;;8.50;63.70;;;;;;6282782;28;20613;-81
2023/12/26 17:32:31;;;;;;;7.00;3.83;;;8.50;64.00;;;;;;6277433;28;20234;-81
2023/12/26 17:35:34;;;;;;;6.30;3.33;;;8.50;64.00;;;;;;6277855;28;20290;-80
2023/12/26 17:38:38;;;;;;;4.67;4.27;;;8.40;64.20;;;;;;6286677;28;20226;-81
2023/12/26 17:41:43;;;;;;;5.43;3.50;;;8.40;64.40;;;;;;6281457;28;20236;-82
2023/12/26 17:44:46;;;;;;;6.30;4.03;;;8.50;64.40;;;;;;6277857;28;20236;-79
2023/12/26 17:47:49;;;;;;;7.30;3.70;;;8.50;64.50;;;;;;6285018;28;20760;-78
2023/12/26 17:50:53;;;;;;;6.50;4.30;;;8.50;64.50;;;;;;6280888;28;20229;-82
2023/12/26 17:53:56;;;;;;;4.03;3.63;;;8.50;64.50;;;;;;6289289;28;20248;-78
2023/12/26 17:57:01;;;;;;;6.60;4.07;;;8.50;64.70;;;;;;6277058;28;20244;-80
2023/12/26 18:00:06;;;;;;;4.63;4.03;;;8.40;64.80;;;;;;6278818;28;20244;-78
2023/12/26 18:03:10;;;;;;;7.33;4.17;;;8.40;64.70;;;;;;6275125;28;20455;-77
2023/12/26 18:06:14;;;;;;;4.30;3.50;;;8.40;65.10;;;;;;6277670;28;20237;-79
2023/12/26 18:09:17;;;;;;;6.83;4.17;;;8.40;65.80;;;;;;6281880;28;20241;-79
2023/12/26 18:12:22;;;;;;;4.60;3.63;;;8.30;66.00;;;;;;6284480;28;20233;-81
2023/12/26 18:15:25;;;;;;;5.07;4.43;;;8.30;66.10;;;;;;6281860;28;20714;-80
2023/12/26 18:18:29;;;;;;;13.47;7.37;;;8.30;65.90;;;;;;6278202;28;20241;-79
2023/12/26 18:21:34;;;;;;;4.73;3.83;;;8.30;66.20;;;;;;6281888;28;20725;-81
2023/12/26 18:24:37;;;;;;;4.30;3.70;;;8.20;66.10;;;;;;6278544;28;20229;-81
2023/12/26 18:27:42;;;;;;;6.40;3.80;;;8.20;66.90;;;;;;6276108;28;20237;-79
2023/12/26 18:30:46;;;;;;;8.00;3.80;;;8.10;68.50;;;;;;6282574;28;20928;-81
2023/12/26 18:33:50;;;;;;;7.80;4.50;;;8.00;69.40;;;;;;6278748;28;20249;-81
2023/12/26 18:36:53;;;;;;;8.97;4.40;;;8.00;70.40;;;;;;6284151;28;20226;-82
2023/12/26 18:39:57;;;;;;;3.73;3.43;;;8.00;71.10;;;;;;6282387;28;20225;-80
2023/12/26 18:43:03;;;;;;;3.83;3.63;;;7.70;72.50;;;;;;6286405;28;20314;-80
2023/12/26 18:46:11;;;;;;;3.37;3.17;;;7.50;73.40;;;;;;6284054;28;20234;-81
2023/12/26 18:49:14;;;;;;;2.90;2.90;;;7.30;74.20;;;;;;6279518;28;20233;-81
2023/12/26 18:52:18;;;;;;;4.13;3.83;;;7.20;75.20;;;;;;6270484;28;20325;-79
2023/12/26 18:55:21;;;;;;;4.37;3.27;;;7.00;75.50;;;;;;6281681;28;20245;-80
2023/12/26 18:58:26;;;;;;;3.20;3.00;;;6.90;75.40;;;;;;6286063;28;20253;-82
2023/12/26 19:01:30;;;;;;;2.53;2.53;;;6.80;75.70;;;;;;6286651;28;20752;-82
2023/12/26 19:04:33;;;;;;;2.77;2.67;;;6.70;75.90;;;;;;6274556;28;20237;-79